sensor_id;sensor_type;location;lat;lon;timestamp;pressure;altitude;pressure_sealevel;temperature;humidity
54666;BME280;40566;50.006;36.180;2023-05-22T00:02:37;99893.50;;;15.46;65.39
54666;BME280;40566;50.006;36.180;2023-05-22T00:07:41;99894.41;;;15.45;65.62
54666;BME280;40566;50.006;36.180;2023-05-22T00:12:42;99902.22;;;15.45;65.52
54666;BME280;40566;50.006;36.180;2023-05-22T00:17:43;99904.00;;;15.45;65.59
54666;BME280;40566;50.006;36.180;2023-05-22T00:22:44;99896.09;;;15.46;65.80
54666;BME280;40566;50.006;36.180;2023-05-22T00:27:46;99895.25;;;15.46;65.83
54666;BME280;40566;50.006;36.180;2023-05-22T00:32:47;99902.22;;;15.45;65.91
54666;BME280;40566;50.006;36.180;2023-05-22T00:37:47;99900.47;;;15.46;66.08
54666;BME280;40566;50.006;36.180;2023-05-22T00:42:48;99899.69;;;15.44;66.09
54666;BME280;40566;50.006;36.180;2023-05-22T00:47:49;99882.38;;;15.43;66.34
54666;BME280;40566;50.006;36.180;2023-05-22T00:52:49;99880.75;;;15.40;66.07
54666;BME280;40566;50.006;36.180;2023-05-22T00:57:51;99873.84;;;15.39;66.06
54666;BME280;40566;50.006;36.180;2023-05-22T01:02:51;99879.03;;;15.39;66.54
54666;BME280;40566;50.006;36.180;2023-05-22T01:07:52;99884.13;;;15.42;66.11
54666;BME280;40566;50.006;36.180;2023-05-22T01:28:42;99885.97;;;15.40;66.30
54666;BME280;40566;50.006;36.180;2023-05-22T01:33:50;99888.69;;;15.37;66.51
54666;BME280;40566;50.006;36.180;2023-05-22T01:38:52;99899.34;;;15.33;66.93
54666;BME280;40566;50.006;36.180;2023-05-22T01:43:53;99882.16;;;15.29;66.74
54666;BME280;40566;50.006;36.180;2023-05-22T01:48:54;99889.38;;;15.22;67.07
54666;BME280;40566;50.006;36.180;2023-05-22T01:59:15;99876.63;;;15.16;67.25
54666;BME280;40566;50.006;36.180;2023-05-22T02:04:21;99889.59;;;15.17;67.45
54666;BME280;40566;50.006;36.180;2023-05-22T02:09:25;99878.97;;;15.22;67.40
54666;BME280;40566;50.006;36.180;2023-05-22T02:14:28;99876.50;;;15.19;67.26
54666;BME280;40566;50.006;36.180;2023-05-22T02:19:29;99874.69;;;15.21;67.38
54666;BME280;40566;50.006;36.180;2023-05-22T02:24:31;99870.25;;;15.23;67.60
54666;BME280;40566;50.006;36.180;2023-05-22T02:29:31;99880.38;;;15.29;67.40
54666;BME280;40566;50.006;36.180;2023-05-22T02:34:32;99882.84;;;15.32;67.67
54666;BME280;40566;50.006;36.180;2023-05-22T02:39:34;99874.88;;;15.35;67.57
54666;BME280;40566;50.006;36.180;2023-05-22T02:44:34;99881.78;;;15.36;67.57
54666;BME280;40566;50.006;36.180;2023-05-22T02:49:35;99888.69;;;15.37;67.97
54666;BME280;40566;50.006;36.180;2023-05-22T02:54:36;99889.34;;;15.42;67.82
54666;BME280;40566;50.006;36.180;2023-05-22T02:59:36;99892.56;;;15.47;67.51
54666;BME280;40566;50.006;36.180;2023-05-22T03:04:38;99888.91;;;15.52;67.43
54666;BME280;40566;50.006;36.180;2023-05-22T03:09:38;99883.63;;;15.53;67.61
54666;BME280;40566;50.006;36.180;2023-05-22T03:14:39;99888.00;;;15.53;67.51
54666;BME280;40566;50.006;36.180;2023-05-22T03:19:39;99878.28;;;15.56;67.32
54666;BME280;40566;50.006;36.180;2023-05-22T03:24:40;99879.84;;;15.60;67.34
54666;BME280;40566;50.006;36.180;2023-05-22T03:29:41;99885.75;;;15.64;67.44
54666;BME280;40566;50.006;36.180;2023-05-22T03:34:42;99875.22;;;15.65;67.57
54666;BME280;40566;50.006;36.180;2023-05-22T03:39:43;99874.25;;;15.68;67.38
54666;BME280;40566;50.006;36.180;2023-05-22T03:44:43;99875.09;;;15.69;67.47
54666;BME280;40566;50.006;36.180;2023-05-22T03:49:44;99878.53;;;15.69;67.57
54666;BME280;40566;50.006;36.180;2023-05-22T03:54:44;99872.31;;;15.73;67.33
54666;BME280;40566;50.006;36.180;2023-05-22T03:59:45;99872.34;;;15.72;67.71
54666;BME280;40566;50.006;36.180;2023-05-22T04:04:46;99880.00;;;15.76;67.96
54666;BME280;40566;50.006;36.180;2023-05-22T04:09:47;99883.22;;;15.81;67.82
54666;BME280;40566;50.006;36.180;2023-05-22T04:14:48;99886.75;;;15.80;67.82
54666;BME280;40566;50.006;36.180;2023-05-22T04:19:48;99879.53;;;15.85;67.82
54666;BME280;40566;50.006;36.180;2023-05-22T04:24:49;99878.56;;;15.88;67.98
54666;BME280;40566;50.006;36.180;2023-05-22T04:29:49;99872.34;;;15.91;67.83
54666;BME280;40566;50.006;36.180;2023-05-22T04:34:50;99877.28;;;15.97;67.81
54666;BME280;40566;50.006;36.180;2023-05-22T04:39:51;99875.91;;;16.07;67.64
54666;BME280;40566;50.006;36.180;2023-05-22T04:44:52;99865.41;;;16.26;67.26
54666;BME280;40566;50.006;36.180;2023-05-22T04:49:53;99859.44;;;16.59;66.77
54666;BME280;40566;50.006;36.180;2023-05-22T04:54:55;99862.69;;;16.80;66.42
54666;BME280;40566;50.006;36.180;2023-05-22T04:59:56;99856.06;;;17.08;65.79
54666;BME280;40566;50.006;36.180;2023-05-22T05:04:57;99857.78;;;17.24;65.58
54666;BME280;40566;50.006;36.180;2023-05-22T05:09:57;99858.47;;;17.28;65.68
54666;BME280;40566;50.006;36.180;2023-05-22T05:14:58;99858.28;;;17.31;65.52
54666;BME280;40566;50.006;36.180;2023-05-22T05:19:59;99853.50;;;17.55;65.01
54666;BME280;40566;50.006;36.180;2023-05-22T05:24:59;99849.88;;;17.74;64.82
54666;BME280;40566;50.006;36.180;2023-05-22T05:30:01;99842.38;;;17.83;64.69
54666;BME280;40566;50.006;36.180;2023-05-22T05:35:01;99834.00;;;17.93;64.51
54666;BME280;40566;50.006;36.180;2023-05-22T05:40:02;99831.44;;;18.07;63.82
54666;BME280;40566;50.006;36.180;2023-05-22T05:45:06;99833.28;;;18.21;63.50
54666;BME280;40566;50.006;36.180;2023-05-22T05:50:06;99840.88;;;18.40;63.27
54666;BME280;40566;50.006;36.180;2023-05-22T05:55:07;99834.28;;;18.49;62.72
54666;BME280;40566;50.006;36.180;2023-05-22T06:00:09;99830.44;;;18.54;62.34
54666;BME280;40566;50.006;36.180;2023-05-22T06:05:12;99830.47;;;18.69;62.23
54666;BME280;40566;50.006;36.180;2023-05-22T06:10:15;99832.38;;;18.81;61.90
54666;BME280;40566;50.006;36.180;2023-05-22T06:15:16;99822.06;;;18.78;61.92
54666;BME280;40566;50.006;36.180;2023-05-22T06:20:17;99823.72;;;18.79;61.48
54666;BME280;40566;50.006;36.180;2023-05-22T06:25:17;99820.97;;;18.82;61.24
54666;BME280;40566;50.006;36.180;2023-05-22T06:30:18;99823.09;;;18.90;60.82
54666;BME280;40566;50.006;36.180;2023-05-22T06:35:18;99819.81;;;19.00;60.16
54666;BME280;40566;50.006;36.180;2023-05-22T06:40:23;99821.03;;;19.09;59.87
54666;BME280;40566;50.006;36.180;2023-05-22T06:45:24;99820.16;;;19.23;59.23
54666;BME280;40566;50.006;36.180;2023-05-22T06:50:24;99807.03;;;19.37;58.68
54666;BME280;40566;50.006;36.180;2023-05-22T06:55:25;99817.22;;;19.42;58.32
54666;BME280;40566;50.006;36.180;2023-05-22T07:00:25;99808.22;;;19.46;58.04
54666;BME280;40566;50.006;36.180;2023-05-22T07:05:26;99807.25;;;19.61;57.82
54666;BME280;40566;50.006;36.180;2023-05-22T07:10:27;99796.13;;;19.85;57.18
54666;BME280;40566;50.006;36.180;2023-05-22T07:15:28;99807.47;;;19.86;56.97
54666;BME280;40566;50.006;36.180;2023-05-22T07:20:28;99804.41;;;19.79;56.72
54666;BME280;40566;50.006;36.180;2023-05-22T07:25:29;99803.53;;;19.78;56.66
54666;BME280;40566;50.006;36.180;2023-05-22T07:30:29;99797.28;;;19.81;56.68
54666;BME280;40566;50.006;36.180;2023-05-22T07:35:30;99794.34;;;19.86;56.34
54666;BME280;40566;50.006;36.180;2023-05-22T07:40:31;99804.25;;;19.95;56.57
54666;BME280;40566;50.006;36.180;2023-05-22T07:45:31;99803.56;;;20.18;56.12
54666;BME280;40566;50.006;36.180;2023-05-22T07:50:32;99792.09;;;20.19;55.87
54666;BME280;40566;50.006;36.180;2023-05-22T07:55:33;99800.84;;;20.33;55.82
54666;BME280;40566;50.006;36.180;2023-05-22T08:00:33;99802.22;;;20.38;55.28
54666;BME280;40566;50.006;36.180;2023-05-22T08:05:34;99795.50;;;20.34;54.46
54666;BME280;40566;50.006;36.180;2023-05-22T08:10:34;99798.13;;;20.34;54.16
54666;BME280;40566;50.006;36.180;2023-05-22T08:15:35;99798.66;;;20.52;53.54
54666;BME280;40566;50.006;36.180;2023-05-22T08:20:36;99795.06;;;20.79;53.02
54666;BME280;40566;50.006;36.180;2023-05-22T08:25:37;99801.34;;;21.15;51.88
54666;BME280;40566;50.006;36.180;2023-05-22T08:30:38;99808.94;;;21.07;51.51
54666;BME280;40566;50.006;36.180;2023-05-22T08:35:38;99810.22;;;20.88;51.66
54666;BME280;40566;50.006;36.180;2023-05-22T08:40:40;99799.91;;;20.85;51.57
54666;BME280;40566;50.006;36.180;2023-05-22T08:45:41;99801.69;;;20.97;50.14
54666;BME280;40566;50.006;36.180;2023-05-22T08:50:43;99802.69;;;21.20;49.00
54666;BME280;40566;50.006;36.180;2023-05-22T08:55:45;99805.06;;;21.36;48.22
54666;BME280;40566;50.006;36.180;2023-05-22T09:00:46;99789.38;;;21.48;48.00
54666;BME280;40566;50.006;36.180;2023-05-22T09:05:47;99797.53;;;21.56;48.45
54666;BME280;40566;50.006;36.180;2023-05-22T09:10:48;99786.72;;;21.72;48.22
54666;BME280;40566;50.006;36.180;2023-05-22T09:15:49;99779.78;;;21.95;47.16
54666;BME280;40566;50.006;36.180;2023-05-22T09:20:49;99782.66;;;22.03;47.18
54666;BME280;40566;50.006;36.180;2023-05-22T09:25:53;99774.41;;;22.32;46.60
54666;BME280;40566;50.006;36.180;2023-05-22T09:30:54;99770.06;;;22.31;46.14
54666;BME280;40566;50.006;36.180;2023-05-22T09:35:55;99772.53;;;22.10;46.22
54666;BME280;40566;50.006;36.180;2023-05-22T09:40:57;99771.38;;;21.90;46.40
54666;BME280;40566;50.006;36.180;2023-05-22T09:46:01;99762.88;;;21.86;46.38
54666;BME280;40566;50.006;36.180;2023-05-22T09:51:03;99757.25;;;21.91;46.19
54666;BME280;40566;50.006;36.180;2023-05-22T09:56:10;99753.69;;;22.03;46.15
54666;BME280;40566;50.006;36.180;2023-05-22T10:01:13;99747.19;;;22.31;45.93
54666;BME280;40566;50.006;36.180;2023-05-22T10:06:16;99745.91;;;22.60;45.39
54666;BME280;40566;50.006;36.180;2023-05-22T10:11:18;99747.34;;;22.75;44.85
54666;BME280;40566;50.006;36.180;2023-05-22T10:16:19;99755.72;;;22.80;44.48
54666;BME280;40566;50.006;36.180;2023-05-22T10:21:20;99741.81;;;22.78;44.56
54666;BME280;40566;50.006;36.180;2023-05-22T10:26:21;99750.44;;;22.80;44.24
54666;BME280;40566;50.006;36.180;2023-05-22T10:31:26;99744.22;;;22.81;44.16
54666;BME280;40566;50.006;36.180;2023-05-22T10:36:41;99717.00;;;23.03;44.32
54666;BME280;40566;50.006;36.180;2023-05-22T10:41:46;99725.72;;;23.26;44.06
54666;BME280;40566;50.006;36.180;2023-05-22T10:46:48;99717.03;;;23.24;44.21
54666;BME280;40566;50.006;36.180;2023-05-22T10:51:54;99713.47;;;23.25;43.99
54666;BME280;40566;50.006;36.180;2023-05-22T11:02:24;99706.31;;;23.05;43.93
54666;BME280;40566;50.006;36.180;2023-05-22T11:07:39;99698.53;;;23.03;43.78
54666;BME280;40566;50.006;36.180;2023-05-22T11:12:40;99714.72;;;22.99;43.29
54666;BME280;40566;50.006;36.180;2023-05-22T11:17:42;99705.81;;;23.00;43.16
54666;BME280;40566;50.006;36.180;2023-05-22T11:22:50;99697.44;;;23.06;43.02
54666;BME280;40566;50.006;36.180;2023-05-22T11:27:55;99707.75;;;23.09;42.99
54666;BME280;40566;50.006;36.180;2023-05-22T11:32:59;99698.72;;;23.00;43.04
54666;BME280;40566;50.006;36.180;2023-05-22T11:38:03;99699.13;;;22.95;42.81
54666;BME280;40566;50.006;36.180;2023-05-22T11:43:05;99699.72;;;22.88;42.83
54666;BME280;40566;50.006;36.180;2023-05-22T11:48:07;99686.53;;;22.88;42.89
54666;BME280;40566;50.006;36.180;2023-05-22T11:53:07;99685.78;;;23.08;43.04
54666;BME280;40566;50.006;36.180;2023-05-22T11:58:08;99683.53;;;23.68;42.47
54666;BME280;40566;50.006;36.180;2023-05-22T12:03:09;99684.72;;;24.27;41.66
54666;BME280;40566;50.006;36.180;2023-05-22T12:08:11;99677.22;;;24.32;41.60
54666;BME280;40566;50.006;36.180;2023-05-22T12:13:11;99675.16;;;24.05;42.31
54666;BME280;40566;50.006;36.180;2023-05-22T12:18:12;99665.91;;;23.90;42.89
54666;BME280;40566;50.006;36.180;2023-05-22T12:23:25;99649.38;;;23.76;43.28
54666;BME280;40566;50.006;36.180;2023-05-22T12:28:26;99657.88;;;23.59;43.69
54666;BME280;40566;50.006;36.180;2023-05-22T12:33:30;99652.53;;;23.49;44.22
54666;BME280;40566;50.006;36.180;2023-05-22T12:38:30;99664.44;;;23.44;44.08
54666;BME280;40566;50.006;36.180;2023-05-22T12:43:31;99664.31;;;23.45;43.94
54666;BME280;40566;50.006;36.180;2023-05-22T12:48:32;99662.50;;;23.46;43.97
54666;BME280;40566;50.006;36.180;2023-05-22T12:53:32;99656.44;;;23.55;43.99
54666;BME280;40566;50.006;36.180;2023-05-22T12:58:33;99675.69;;;23.46;43.21
54666;BME280;40566;50.006;36.180;2023-05-22T13:03:33;99667.56;;;23.16;43.34
54666;BME280;40566;50.006;36.180;2023-05-22T13:08:34;99668.16;;;22.97;43.42
54666;BME280;40566;50.006;36.180;2023-05-22T13:13:35;99671.34;;;22.69;43.95
54666;BME280;40566;50.006;36.180;2023-05-22T13:18:35;99675.81;;;22.34;44.42
54666;BME280;40566;50.006;36.180;2023-05-22T13:23:36;99682.81;;;22.00;45.04
54666;BME280;40566;50.006;36.180;2023-05-22T13:28:36;99691.00;;;21.73;45.36
54666;BME280;40566;50.006;36.180;2023-05-22T13:33:37;99700.41;;;21.53;45.61
54666;BME280;40566;50.006;36.180;2023-05-22T13:38:37;99708.88;;;21.32;46.52
54666;BME280;40566;50.006;36.180;2023-05-22T13:43:38;99711.41;;;21.10;47.09
54666;BME280;40566;50.006;36.180;2023-05-22T13:48:39;99719.56;;;20.94;47.44
54666;BME280;40566;50.006;36.180;2023-05-22T13:53:39;99727.34;;;20.83;47.77
54666;BME280;40566;50.006;36.180;2023-05-22T13:58:40;99722.97;;;20.70;48.27
54666;BME280;40566;50.006;36.180;2023-05-22T14:03:40;99725.69;;;20.56;48.54
54666;BME280;40566;50.006;36.180;2023-05-22T14:08:41;99735.38;;;20.43;49.22
54666;BME280;40566;50.006;36.180;2023-05-22T14:13:42;99731.81;;;20.31;48.79
54666;BME280;40566;50.006;36.180;2023-05-22T14:18:42;99726.88;;;20.26;48.52
54666;BME280;40566;50.006;36.180;2023-05-22T14:23:43;99719.19;;;20.23;48.46
54666;BME280;40566;50.006;36.180;2023-05-22T14:28:44;99702.38;;;20.13;49.02
54666;BME280;40566;50.006;36.180;2023-05-22T14:33:44;99691.75;;;19.89;50.01
54666;BME280;40566;50.006;36.180;2023-05-22T14:38:45;99687.63;;;19.72;51.46
54666;BME280;40566;50.006;36.180;2023-05-22T14:43:46;99691.56;;;19.52;53.42
54666;BME280;40566;50.006;36.180;2023-05-22T14:48:46;99699.66;;;19.21;55.20
54666;BME280;40566;50.006;36.180;2023-05-22T14:53:47;99691.41;;;19.13;56.54
54666;BME280;40566;50.006;36.180;2023-05-22T14:58:47;99694.53;;;19.06;56.96
54666;BME280;40566;50.006;36.180;2023-05-22T15:03:48;99697.84;;;19.22;57.15
54666;BME280;40566;50.006;36.180;2023-05-22T15:08:48;99698.00;;;19.33;57.35
54666;BME280;40566;50.006;36.180;2023-05-22T15:13:49;99691.63;;;19.37;57.06
54666;BME280;40566;50.006;36.180;2023-05-22T15:18:50;99693.34;;;19.24;57.65
54666;BME280;40566;50.006;36.180;2023-05-22T15:23:51;99687.75;;;19.16;57.99
54666;BME280;40566;50.006;36.180;2023-05-22T15:28:51;99688.91;;;19.12;58.51
54666;BME280;40566;50.006;36.180;2023-05-22T15:33:52;99682.19;;;19.08;59.46
54666;BME280;40566;50.006;36.180;2023-05-22T15:38:55;99691.28;;;19.02;59.83
54666;BME280;40566;50.006;36.180;2023-05-22T15:43:57;99689.56;;;19.01;59.89
54666;BME280;40566;50.006;36.180;2023-05-22T15:48:57;99705.97;;;19.05;60.29
54666;BME280;40566;50.006;36.180;2023-05-22T15:53:58;99694.63;;;19.04;60.29
54666;BME280;40566;50.006;36.180;2023-05-22T15:58:59;99709.72;;;19.00;61.02
54666;BME280;40566;50.006;36.180;2023-05-22T16:04:00;99722.81;;;19.00;61.33
54666;BME280;40566;50.006;36.180;2023-05-22T16:09:01;99718.50;;;18.99;61.29
54666;BME280;40566;50.006;36.180;2023-05-22T16:14:03;99716.84;;;18.98;61.18
54666;BME280;40566;50.006;36.180;2023-05-22T16:19:04;99712.50;;;18.97;61.28
54666;BME280;40566;50.006;36.180;2023-05-22T16:24:05;99701.59;;;18.91;61.78
54666;BME280;40566;50.006;36.180;2023-05-22T16:29:06;99702.41;;;18.91;61.95
54666;BME280;40566;50.006;36.180;2023-05-22T16:34:11;99709.84;;;18.85;61.91
54666;BME280;40566;50.006;36.180;2023-05-22T16:39:12;99695.31;;;18.79;62.16
54666;BME280;40566;50.006;36.180;2023-05-22T16:44:13;99706.56;;;18.81;62.34
54666;BME280;40566;50.006;36.180;2023-05-22T16:49:13;99714.25;;;18.84;62.07
54666;BME280;40566;50.006;36.180;2023-05-22T16:54:14;99715.16;;;18.83;62.10
54666;BME280;40566;50.006;36.180;2023-05-22T16:59:14;99711.91;;;18.79;61.96
54666;BME280;40566;50.006;36.180;2023-05-22T17:04:15;99713.81;;;18.76;62.16
54666;BME280;40566;50.006;36.180;2023-05-22T17:09:18;99709.72;;;18.72;62.42
54666;BME280;40566;50.006;36.180;2023-05-22T17:14:21;99706.56;;;18.67;62.17
54666;BME280;40566;50.006;36.180;2023-05-22T17:19:21;99715.72;;;18.59;62.53
54666;BME280;40566;50.006;36.180;2023-05-22T17:24:23;99721.34;;;18.53;62.33
54666;BME280;40566;50.006;36.180;2023-05-22T17:29:24;99718.16;;;18.48;62.46
54666;BME280;40566;50.006;36.180;2023-05-22T17:34:24;99723.38;;;18.48;62.36
54666;BME280;40566;50.006;36.180;2023-05-22T17:39:25;99733.97;;;18.47;62.39
54666;BME280;40566;50.006;36.180;2023-05-22T17:44:26;99735.66;;;18.48;62.14
54666;BME280;40566;50.006;36.180;2023-05-22T17:49:26;99741.09;;;18.45;61.94
54666;BME280;40566;50.006;36.180;2023-05-22T17:54:32;99734.91;;;18.46;62.07
54666;BME280;40566;50.006;36.180;2023-05-22T17:59:33;99756.31;;;18.38;62.00
54666;BME280;40566;50.006;36.180;2023-05-22T18:04:35;99748.75;;;18.33;62.06
54666;BME280;40566;50.006;36.180;2023-05-22T18:09:35;99759.84;;;18.22;62.10
54666;BME280;40566;50.006;36.180;2023-05-22T18:14:36;99758.16;;;18.07;62.46
54666;BME280;40566;50.006;36.180;2023-05-22T18:19:36;99763.09;;;17.97;62.68
54666;BME280;40566;50.006;36.180;2023-05-22T18:24:37;99772.03;;;17.93;63.00
54666;BME280;40566;50.006;36.180;2023-05-22T18:29:38;99781.09;;;17.88;63.38
54666;BME280;40566;50.006;36.180;2023-05-22T18:34:39;99781.25;;;17.84;63.49
54666;BME280;40566;50.006;36.180;2023-05-22T18:39:40;99781.00;;;17.89;63.25
54666;BME280;40566;50.006;36.180;2023-05-22T18:44:40;99768.00;;;17.88;62.86
54666;BME280;40566;50.006;36.180;2023-05-22T18:49:41;99765.31;;;17.89;62.75
54666;BME280;40566;50.006;36.180;2023-05-22T18:54:43;99764.63;;;17.86;62.93
54666;BME280;40566;50.006;36.180;2023-05-22T18:59:43;99762.09;;;17.84;63.08
54666;BME280;40566;50.006;36.180;2023-05-22T19:04:45;99756.34;;;17.77;63.20
54666;BME280;40566;50.006;36.180;2023-05-22T19:09:46;99763.69;;;17.71;63.19
54666;BME280;40566;50.006;36.180;2023-05-22T19:14:46;99759.84;;;17.62;63.31
54666;BME280;40566;50.006;36.180;2023-05-22T19:19:47;99752.34;;;17.56;63.36
54666;BME280;40566;50.006;36.180;2023-05-22T19:24:48;99752.50;;;17.53;63.32
54666;BME280;40566;50.006;36.180;2023-05-22T19:29:48;99751.75;;;17.51;63.46
54666;BME280;40566;50.006;36.180;2023-05-22T19:34:49;99750.25;;;17.47;63.17
54666;BME280;40566;50.006;36.180;2023-05-22T19:39:50;99750.59;;;17.40;63.38
54666;BME280;40566;50.006;36.180;2023-05-22T19:44:50;99758.94;;;17.31;63.57
54666;BME280;40566;50.006;36.180;2023-05-22T19:49:51;99755.00;;;17.24;63.70
54666;BME280;40566;50.006;36.180;2023-05-22T19:54:51;99750.84;;;17.20;63.50
54666;BME280;40566;50.006;36.180;2023-05-22T19:59:53;99745.03;;;17.15;64.02
54666;BME280;40566;50.006;36.180;2023-05-22T20:04:53;99743.75;;;17.06;64.09
54666;BME280;40566;50.006;36.180;2023-05-22T20:09:54;99749.16;;;17.03;64.34
54666;BME280;40566;50.006;36.180;2023-05-22T20:14:54;99736.44;;;16.97;64.48
54666;BME280;40566;50.006;36.180;2023-05-22T20:19:57;99742.50;;;16.97;64.35
54666;BME280;40566;50.006;36.180;2023-05-22T20:24:58;99735.75;;;16.93;64.24
54666;BME280;40566;50.006;36.180;2023-05-22T20:29:58;99734.22;;;16.89;64.30
54666;BME280;40566;50.006;36.180;2023-05-22T20:34:59;99735.25;;;16.87;64.31
54666;BME280;40566;50.006;36.180;2023-05-22T20:40:00;99737.19;;;16.83;64.46
54666;BME280;40566;50.006;36.180;2023-05-22T20:45:08;99725.94;;;16.81;64.25
54666;BME280;40566;50.006;36.180;2023-05-22T20:50:12;99729.66;;;16.77;64.41
54666;BME280;40566;50.006;36.180;2023-05-22T20:55:13;99719.41;;;16.72;64.21
54666;BME280;40566;50.006;36.180;2023-05-22T21:00:13;99721.38;;;16.69;64.36
54666;BME280;40566;50.006;36.180;2023-05-22T21:05:16;99718.91;;;16.65;64.39
54666;BME280;40566;50.006;36.180;2023-05-22T21:10:16;99722.53;;;16.63;64.56
54666;BME280;40566;50.006;36.180;2023-05-22T21:15:17;99719.41;;;16.56;64.93
54666;BME280;40566;50.006;36.180;2023-05-22T21:20:17;99723.94;;;16.53;64.96
54666;BME280;40566;50.006;36.180;2023-05-22T21:25:18;99725.78;;;16.51;64.88
54666;BME280;40566;50.006;36.180;2023-05-22T21:30:19;99727.41;;;16.53;64.92
54666;BME280;40566;50.006;36.180;2023-05-22T21:35:19;99723.78;;;16.56;64.95
54666;BME280;40566;50.006;36.180;2023-05-22T21:40:20;99722.63;;;16.61;65.06
54666;BME280;40566;50.006;36.180;2023-05-22T21:45:21;99723.31;;;16.65;65.07
54666;BME280;40566;50.006;36.180;2023-05-22T21:50:21;99722.28;;;16.68;64.98
54666;BME280;40566;50.006;36.180;2023-05-22T21:55:22;99725.50;;;16.73;65.00
54666;BME280;40566;50.006;36.180;2023-05-22T22:00:23;99724.56;;;16.74;64.64
54666;BME280;40566;50.006;36.180;2023-05-22T22:05:23;99721.19;;;16.72;64.67
54666;BME280;40566;50.006;36.180;2023-05-22T22:10:26;99723.66;;;16.75;64.73
54666;BME280;40566;50.006;36.180;2023-05-22T22:15:27;99723.66;;;16.75;64.51
54666;BME280;40566;50.006;36.180;2023-05-22T22:20:27;99708.22;;;16.70;65.19
54666;BME280;40566;50.006;36.180;2023-05-22T22:25:31;99703.09;;;16.69;64.72
54666;BME280;40566;50.006;36.180;2023-05-22T22:30:32;99705.59;;;16.70;64.49
54666;BME280;40566;50.006;36.180;2023-05-22T22:35:33;99698.53;;;16.72;64.22
54666;BME280;40566;50.006;36.180;2023-05-22T22:40:33;99701.06;;;16.74;64.14
54666;BME280;40566;50.006;36.180;2023-05-22T22:45:34;99697.53;;;16.75;63.99
54666;BME280;40566;50.006;36.180;2023-05-22T22:50:34;99688.75;;;16.76;64.34
54666;BME280;40566;50.006;36.180;2023-05-22T22:55:35;99676.97;;;16.69;63.79
54666;BME280;40566;50.006;36.180;2023-05-22T23:00:35;99672.34;;;16.74;64.17
54666;BME280;40566;50.006;36.180;2023-05-22T23:05:36;99680.16;;;16.74;64.26
54666;BME280;40566;50.006;36.180;2023-05-22T23:10:37;99679.16;;;16.76;64.18
54666;BME280;40566;50.006;36.180;2023-05-22T23:15:37;99673.09;;;16.76;64.06
54666;BME280;40566;50.006;36.180;2023-05-22T23:20:38;99675.53;;;16.79;64.08
54666;BME280;40566;50.006;36.180;2023-05-22T23:25:38;99667.59;;;16.80;63.68
54666;BME280;40566;50.006;36.180;2023-05-22T23:30:39;99679.78;;;16.81;63.76
54666;BME280;40566;50.006;36.180;2023-05-22T23:35:40;99658.94;;;16.80;63.83
54666;BME280;40566;50.006;36.180;2023-05-22T23:40:41;99673.00;;;16.77;64.07
54666;BME280;40566;50.006;36.180;2023-05-22T23:45:41;99666.75;;;16.80;64.08
54666;BME280;40566;50.006;36.180;2023-05-22T23:50:42;99663.97;;;16.84;63.65
54666;BME280;40566;50.006;36.180;2023-05-22T23:55:43;99658.53;;;16.88;63.37
